sensor_id;sensor_type;location;lat;lon;timestamp;P1;durP1;ratioP1;P2;durP2;ratioP2
13849;SDS011;6995;52.618;13.488;2023-03-01T00:01:24;48.57;;;43.40;;
13849;SDS011;6995;52.618;13.488;2023-03-01T00:03:56;51.90;;;45.00;;
13849;SDS011;6995;52.618;13.488;2023-03-01T00:06:23;52.60;;;43.43;;
13849;SDS011;6995;52.618;13.488;2023-03-01T00:08:50;51.90;;;46.70;;
13849;SDS011;6995;52.618;13.488;2023-03-01T00:11:24;55.53;;;45.00;;
13849;SDS011;6995;52.618;13.488;2023-03-01T00:13:55;55.47;;;49.43;;
13849;SDS011;6995;52.618;13.488;2023-03-01T00:16:27;55.70;;;46.43;;
13849;SDS011;6995;52.618;13.488;2023-03-01T00:18:58;54.47;;;45.10;;
13849;SDS011;6995;52.618;13.488;2023-03-01T00:21:24;53.53;;;47.57;;
13849;SDS011;6995;52.618;13.488;2023-03-01T00:23:51;54.83;;;48.93;;
13849;SDS011;6995;52.618;13.488;2023-03-01T00:26:21;56.43;;;50.53;;
13849;SDS011;6995;52.618;13.488;2023-03-01T00:28:48;49.90;;;44.60;;
13849;SDS011;6995;52.618;13.488;2023-03-01T00:31:17;45.60;;;41.23;;
13849;SDS011;6995;52.618;13.488;2023-03-01T00:33:44;46.57;;;42.17;;
13849;SDS011;6995;52.618;13.488;2023-03-01T00:36:11;55.47;;;49.57;;
13849;SDS011;6995;52.618;13.488;2023-03-01T00:38:42;50.60;;;44.87;;
13849;SDS011;6995;52.618;13.488;2023-03-01T00:41:10;52.67;;;47.20;;
13849;SDS011;6995;52.618;13.488;2023-03-01T00:43:38;53.43;;;46.97;;
13849;SDS011;6995;52.618;13.488;2023-03-01T00:46:05;50.40;;;45.30;;
13849;SDS011;6995;52.618;13.488;2023-03-01T00:48:35;48.70;;;41.87;;
13849;SDS011;6995;52.618;13.488;2023-03-01T00:51:08;43.67;;;39.23;;
13849;SDS011;6995;52.618;13.488;2023-03-01T00:53:50;47.10;;;42.27;;
13849;SDS011;6995;52.618;13.488;2023-03-01T00:56:17;43.27;;;38.97;;
13849;SDS011;6995;52.618;13.488;2023-03-01T00:58:43;43.73;;;39.17;;
13849;SDS011;6995;52.618;13.488;2023-03-01T01:01:09;44.50;;;40.10;;
13849;SDS011;6995;52.618;13.488;2023-03-01T01:03:46;46.33;;;41.33;;
13849;SDS011;6995;52.618;13.488;2023-03-01T01:06:18;48.03;;;43.63;;
13849;SDS011;6995;52.618;13.488;2023-03-01T01:08:59;43.60;;;39.47;;
13849;SDS011;6995;52.618;13.488;2023-03-01T01:11:25;41.47;;;37.63;;
13849;SDS011;6995;52.618;13.488;2023-03-01T01:13:52;42.83;;;38.70;;
13849;SDS011;6995;52.618;13.488;2023-03-01T01:16:19;43.50;;;39.47;;
13849;SDS011;6995;52.618;13.488;2023-03-01T01:18:46;41.50;;;37.70;;
13849;SDS011;6995;52.618;13.488;2023-03-01T01:21:14;40.70;;;36.93;;
13849;SDS011;6995;52.618;13.488;2023-03-01T01:23:42;42.70;;;38.50;;
13849;SDS011;6995;52.618;13.488;2023-03-01T01:26:11;38.20;;;35.00;;
13849;SDS011;6995;52.618;13.488;2023-03-01T01:28:46;38.87;;;35.47;;
13849;SDS011;6995;52.618;13.488;2023-03-01T01:31:12;40.87;;;36.97;;
13849;SDS011;6995;52.618;13.488;2023-03-01T01:33:38;38.63;;;35.33;;
13849;SDS011;6995;52.618;13.488;2023-03-01T01:36:04;40.43;;;36.63;;
13849;SDS011;6995;52.618;13.488;2023-03-01T01:38:31;43.20;;;39.40;;
13849;SDS011;6995;52.618;13.488;2023-03-01T01:40:59;40.47;;;36.93;;
13849;SDS011;6995;52.618;13.488;2023-03-01T01:43:29;40.17;;;36.43;;
13849;SDS011;6995;52.618;13.488;2023-03-01T01:45:59;38.37;;;34.80;;
13849;SDS011;6995;52.618;13.488;2023-03-01T01:48:32;39.80;;;36.30;;
13849;SDS011;6995;52.618;13.488;2023-03-01T01:51:09;39.07;;;35.57;;
13849;SDS011;6995;52.618;13.488;2023-03-01T01:56:40;38.27;;;35.07;;
13849;SDS011;6995;52.618;13.488;2023-03-01T01:59:09;39.30;;;36.00;;
13849;SDS011;6995;52.618;13.488;2023-03-01T02:01:36;43.73;;;40.33;;
13849;SDS011;6995;52.618;13.488;2023-03-01T02:04:02;42.00;;;38.30;;
13849;SDS011;6995;52.618;13.488;2023-03-01T02:06:37;40.13;;;36.50;;
13849;SDS011;6995;52.618;13.488;2023-03-01T02:09:07;41.93;;;37.77;;
13849;SDS011;6995;52.618;13.488;2023-03-01T02:11:38;38.37;;;34.60;;
13849;SDS011;6995;52.618;13.488;2023-03-01T02:14:04;39.70;;;36.20;;
13849;SDS011;6995;52.618;13.488;2023-03-01T02:16:31;39.67;;;35.97;;
13849;SDS011;6995;52.618;13.488;2023-03-01T02:18:57;39.73;;;36.00;;
13849;SDS011;6995;52.618;13.488;2023-03-01T02:23:59;42.77;;;39.03;;
13849;SDS011;6995;52.618;13.488;2023-03-01T02:26:42;41.00;;;36.93;;
13849;SDS011;6995;52.618;13.488;2023-03-01T02:29:13;42.50;;;38.27;;
13849;SDS011;6995;52.618;13.488;2023-03-01T02:31:39;42.90;;;38.87;;
13849;SDS011;6995;52.618;13.488;2023-03-01T02:34:15;41.20;;;37.73;;
13849;SDS011;6995;52.618;13.488;2023-03-01T02:36:51;38.40;;;35.00;;
13849;SDS011;6995;52.618;13.488;2023-03-01T02:39:22;40.80;;;37.10;;
13849;SDS011;6995;52.618;13.488;2023-03-01T02:42:13;41.97;;;38.27;;
13849;SDS011;6995;52.618;13.488;2023-03-01T02:44:41;40.77;;;36.97;;
13849;SDS011;6995;52.618;13.488;2023-03-01T02:47:07;41.57;;;38.03;;
13849;SDS011;6995;52.618;13.488;2023-03-01T02:49:34;41.63;;;37.73;;
13849;SDS011;6995;52.618;13.488;2023-03-01T02:55:04;40.80;;;37.27;;
13849;SDS011;6995;52.618;13.488;2023-03-01T02:57:34;40.60;;;36.97;;
13849;SDS011;6995;52.618;13.488;2023-03-01T03:00:04;42.30;;;38.27;;
13849;SDS011;6995;52.618;13.488;2023-03-01T03:02:32;42.53;;;38.53;;
13849;SDS011;6995;52.618;13.488;2023-03-01T03:05:06;43.73;;;39.73;;
13849;SDS011;6995;52.618;13.488;2023-03-01T03:07:40;44.20;;;40.23;;
13849;SDS011;6995;52.618;13.488;2023-03-01T03:10:09;45.07;;;40.70;;
13849;SDS011;6995;52.618;13.488;2023-03-01T03:12:37;45.53;;;41.10;;
13849;SDS011;6995;52.618;13.488;2023-03-01T03:15:04;43.47;;;39.13;;
13849;SDS011;6995;52.618;13.488;2023-03-01T03:17:34;43.93;;;40.03;;
13849;SDS011;6995;52.618;13.488;2023-03-01T03:20:01;39.37;;;35.87;;
13849;SDS011;6995;52.618;13.488;2023-03-01T03:22:28;41.70;;;38.00;;
13849;SDS011;6995;52.618;13.488;2023-03-01T03:24:54;41.00;;;37.27;;
13849;SDS011;6995;52.618;13.488;2023-03-01T03:27:20;39.50;;;36.10;;
13849;SDS011;6995;52.618;13.488;2023-03-01T03:29:46;39.93;;;36.53;;
13849;SDS011;6995;52.618;13.488;2023-03-01T03:32:14;39.00;;;35.60;;
13849;SDS011;6995;52.618;13.488;2023-03-01T03:34:39;38.40;;;34.80;;
13849;SDS011;6995;52.618;13.488;2023-03-01T03:37:05;41.33;;;37.57;;
13849;SDS011;6995;52.618;13.488;2023-03-01T03:39:51;39.17;;;35.43;;
13849;SDS011;6995;52.618;13.488;2023-03-01T03:42:19;42.73;;;38.93;;
13849;SDS011;6995;52.618;13.488;2023-03-01T03:44:46;42.10;;;38.13;;
13849;SDS011;6995;52.618;13.488;2023-03-01T03:47:12;40.90;;;37.27;;
13849;SDS011;6995;52.618;13.488;2023-03-01T03:49:47;38.70;;;35.17;;
13849;SDS011;6995;52.618;13.488;2023-03-01T03:52:13;39.63;;;35.97;;
13849;SDS011;6995;52.618;13.488;2023-03-01T03:54:39;39.67;;;36.40;;
13849;SDS011;6995;52.618;13.488;2023-03-01T03:57:06;38.17;;;34.67;;
13849;SDS011;6995;52.618;13.488;2023-03-01T03:59:32;39.50;;;35.80;;
13849;SDS011;6995;52.618;13.488;2023-03-01T04:01:57;39.40;;;35.83;;
13849;SDS011;6995;52.618;13.488;2023-03-01T04:04:23;37.93;;;34.53;;
13849;SDS011;6995;52.618;13.488;2023-03-01T04:06:49;40.33;;;36.57;;
13849;SDS011;6995;52.618;13.488;2023-03-01T04:09:14;38.70;;;35.30;;
13849;SDS011;6995;52.618;13.488;2023-03-01T04:11:40;44.50;;;40.30;;
13849;SDS011;6995;52.618;13.488;2023-03-01T04:14:06;42.90;;;39.20;;
13849;SDS011;6995;52.618;13.488;2023-03-01T04:16:31;46.70;;;42.53;;
13849;SDS011;6995;52.618;13.488;2023-03-01T04:18:57;40.70;;;36.43;;
13849;SDS011;6995;52.618;13.488;2023-03-01T04:21:24;41.17;;;37.57;;
13849;SDS011;6995;52.618;13.488;2023-03-01T04:23:50;37.97;;;34.37;;
13849;SDS011;6995;52.618;13.488;2023-03-01T04:26:17;41.37;;;37.63;;
13849;SDS011;6995;52.618;13.488;2023-03-01T04:28:44;40.90;;;37.33;;
13849;SDS011;6995;52.618;13.488;2023-03-01T04:31:14;40.03;;;36.53;;
13849;SDS011;6995;52.618;13.488;2023-03-01T04:36:10;42.00;;;38.33;;
13849;SDS011;6995;52.618;13.488;2023-03-01T04:38:37;40.77;;;37.47;;
13849;SDS011;6995;52.618;13.488;2023-03-01T04:41:05;39.60;;;35.93;;
13849;SDS011;6995;52.618;13.488;2023-03-01T04:43:33;41.50;;;37.90;;
13849;SDS011;6995;52.618;13.488;2023-03-01T04:46:00;41.00;;;37.03;;
13849;SDS011;6995;52.618;13.488;2023-03-01T04:48:31;38.90;;;35.60;;
13849;SDS011;6995;52.618;13.488;2023-03-01T04:51:00;39.23;;;35.67;;
13849;SDS011;6995;52.618;13.488;2023-03-01T04:53:27;40.97;;;37.37;;
13849;SDS011;6995;52.618;13.488;2023-03-01T04:55:54;41.67;;;37.47;;
13849;SDS011;6995;52.618;13.488;2023-03-01T04:58:22;39.33;;;35.83;;
13849;SDS011;6995;52.618;13.488;2023-03-01T05:00:50;37.83;;;34.53;;
13849;SDS011;6995;52.618;13.488;2023-03-01T05:03:17;37.37;;;34.07;;
13849;SDS011;6995;52.618;13.488;2023-03-01T05:05:43;44.23;;;40.27;;
13849;SDS011;6995;52.618;13.488;2023-03-01T05:08:09;43.10;;;39.50;;
13849;SDS011;6995;52.618;13.488;2023-03-01T05:10:42;38.57;;;35.43;;
13849;SDS011;6995;52.618;13.488;2023-03-01T05:13:14;39.80;;;36.13;;
13849;SDS011;6995;52.618;13.488;2023-03-01T05:15:59;39.03;;;35.43;;
13849;SDS011;6995;52.618;13.488;2023-03-01T05:18:26;41.67;;;38.27;;
13849;SDS011;6995;52.618;13.488;2023-03-01T05:20:53;37.20;;;34.10;;
13849;SDS011;6995;52.618;13.488;2023-03-01T05:23:21;40.37;;;36.97;;
13849;SDS011;6995;52.618;13.488;2023-03-01T05:25:47;40.87;;;37.60;;
13849;SDS011;6995;52.618;13.488;2023-03-01T05:28:14;48.90;;;44.90;;
13849;SDS011;6995;52.618;13.488;2023-03-01T05:30:40;45.93;;;42.43;;
13849;SDS011;6995;52.618;13.488;2023-03-01T05:33:07;41.00;;;37.40;;
13849;SDS011;6995;52.618;13.488;2023-03-01T05:35:41;40.97;;;37.13;;
13849;SDS011;6995;52.618;13.488;2023-03-01T05:38:12;40.67;;;37.03;;
13849;SDS011;6995;52.618;13.488;2023-03-01T05:40:39;38.80;;;35.33;;
13849;SDS011;6995;52.618;13.488;2023-03-01T05:43:05;36.23;;;33.43;;
13849;SDS011;6995;52.618;13.488;2023-03-01T05:45:32;42.03;;;38.37;;
13849;SDS011;6995;52.618;13.488;2023-03-01T05:47:58;45.30;;;41.20;;
13849;SDS011;6995;52.618;13.488;2023-03-01T05:50:25;49.73;;;45.77;;
13849;SDS011;6995;52.618;13.488;2023-03-01T05:55:25;51.00;;;46.57;;
13849;SDS011;6995;52.618;13.488;2023-03-01T05:57:51;43.03;;;39.00;;
13849;SDS011;6995;52.618;13.488;2023-03-01T06:00:22;45.67;;;41.37;;
13849;SDS011;6995;52.618;13.488;2023-03-01T06:02:48;40.90;;;36.73;;
13849;SDS011;6995;52.618;13.488;2023-03-01T06:05:14;43.70;;;39.90;;
13849;SDS011;6995;52.618;13.488;2023-03-01T06:10:28;49.20;;;45.30;;
13849;SDS011;6995;52.618;13.488;2023-03-01T06:12:54;43.63;;;40.10;;
13849;SDS011;6995;52.618;13.488;2023-03-01T06:15:20;45.67;;;41.60;;
13849;SDS011;6995;52.618;13.488;2023-03-01T06:17:46;40.00;;;36.47;;
13849;SDS011;6995;52.618;13.488;2023-03-01T06:20:15;41.30;;;37.07;;
13849;SDS011;6995;52.618;13.488;2023-03-01T06:22:43;41.07;;;37.37;;
13849;SDS011;6995;52.618;13.488;2023-03-01T06:25:10;42.43;;;38.73;;
13849;SDS011;6995;52.618;13.488;2023-03-01T06:27:40;39.97;;;36.40;;
13849;SDS011;6995;52.618;13.488;2023-03-01T06:30:07;43.60;;;39.80;;
13849;SDS011;6995;52.618;13.488;2023-03-01T06:32:35;40.60;;;37.00;;
13849;SDS011;6995;52.618;13.488;2023-03-01T06:35:07;41.30;;;37.60;;
13849;SDS011;6995;52.618;13.488;2023-03-01T06:37:33;37.93;;;34.73;;
13849;SDS011;6995;52.618;13.488;2023-03-01T06:40:08;42.67;;;38.70;;
13849;SDS011;6995;52.618;13.488;2023-03-01T06:42:41;39.97;;;36.37;;
13849;SDS011;6995;52.618;13.488;2023-03-01T06:45:13;40.87;;;36.93;;
13849;SDS011;6995;52.618;13.488;2023-03-01T06:47:42;39.23;;;35.70;;
13849;SDS011;6995;52.618;13.488;2023-03-01T06:50:07;40.83;;;37.10;;
13849;SDS011;6995;52.618;13.488;2023-03-01T06:52:34;38.63;;;34.77;;
13849;SDS011;6995;52.618;13.488;2023-03-01T06:54:59;39.13;;;35.57;;
13849;SDS011;6995;52.618;13.488;2023-03-01T06:57:26;38.83;;;35.30;;
13849;SDS011;6995;52.618;13.488;2023-03-01T06:59:52;39.90;;;36.27;;
13849;SDS011;6995;52.618;13.488;2023-03-01T07:02:18;39.67;;;36.47;;
13849;SDS011;6995;52.618;13.488;2023-03-01T07:04:43;40.87;;;37.03;;
13849;SDS011;6995;52.618;13.488;2023-03-01T07:07:09;42.13;;;38.10;;
13849;SDS011;6995;52.618;13.488;2023-03-01T07:09:35;40.47;;;36.70;;
13849;SDS011;6995;52.618;13.488;2023-03-01T07:12:01;51.40;;;47.53;;
13849;SDS011;6995;52.618;13.488;2023-03-01T07:14:27;46.77;;;42.40;;
13849;SDS011;6995;52.618;13.488;2023-03-01T07:16:53;43.53;;;39.33;;
13849;SDS011;6995;52.618;13.488;2023-03-01T07:19:19;41.83;;;38.23;;
13849;SDS011;6995;52.618;13.488;2023-03-01T07:21:46;43.57;;;39.23;;
13849;SDS011;6995;52.618;13.488;2023-03-01T07:24:15;39.63;;;36.03;;
13849;SDS011;6995;52.618;13.488;2023-03-01T07:26:40;44.60;;;40.43;;
13849;SDS011;6995;52.618;13.488;2023-03-01T07:29:09;37.83;;;34.23;;
13849;SDS011;6995;52.618;13.488;2023-03-01T07:31:35;40.77;;;37.07;;
13849;SDS011;6995;52.618;13.488;2023-03-01T07:34:04;40.20;;;36.60;;
13849;SDS011;6995;52.618;13.488;2023-03-01T07:36:30;41.07;;;37.40;;
13849;SDS011;6995;52.618;13.488;2023-03-01T07:38:58;41.23;;;37.70;;
13849;SDS011;6995;52.618;13.488;2023-03-01T07:41:29;47.83;;;43.77;;
13849;SDS011;6995;52.618;13.488;2023-03-01T07:44:21;37.97;;;34.53;;
13849;SDS011;6995;52.618;13.488;2023-03-01T07:47:03;37.23;;;34.13;;
13849;SDS011;6995;52.618;13.488;2023-03-01T07:49:34;35.83;;;33.10;;
13849;SDS011;6995;52.618;13.488;2023-03-01T07:52:18;33.53;;;30.73;;
13849;SDS011;6995;52.618;13.488;2023-03-01T07:59:16;28.97;;;26.77;;
13849;SDS011;6995;52.618;13.488;2023-03-01T08:02:11;32.53;;;29.97;;
13849;SDS011;6995;52.618;13.488;2023-03-01T08:05:11;37.70;;;34.47;;
13849;SDS011;6995;52.618;13.488;2023-03-01T08:08:06;31.03;;;28.83;;
13849;SDS011;6995;52.618;13.488;2023-03-01T08:10:35;32.93;;;30.13;;
13849;SDS011;6995;52.618;13.488;2023-03-01T08:13:03;32.50;;;30.10;;
13849;SDS011;6995;52.618;13.488;2023-03-01T08:15:33;38.97;;;36.13;;
13849;SDS011;6995;52.618;13.488;2023-03-01T08:18:03;36.50;;;33.47;;
13849;SDS011;6995;52.618;13.488;2023-03-01T08:20:29;31.33;;;28.80;;
13849;SDS011;6995;52.618;13.488;2023-03-01T08:23:07;34.50;;;32.00;;
13849;SDS011;6995;52.618;13.488;2023-03-01T08:25:33;32.33;;;29.93;;
13849;SDS011;6995;52.618;13.488;2023-03-01T08:27:59;31.90;;;29.43;;
13849;SDS011;6995;52.618;13.488;2023-03-01T08:30:35;34.27;;;31.87;;
13849;SDS011;6995;52.618;13.488;2023-03-01T08:33:13;30.67;;;28.33;;
13849;SDS011;6995;52.618;13.488;2023-03-01T08:35:48;29.83;;;27.83;;
13849;SDS011;6995;52.618;13.488;2023-03-01T08:38:16;30.63;;;28.00;;
13849;SDS011;6995;52.618;13.488;2023-03-01T08:40:42;30.33;;;28.17;;
13849;SDS011;6995;52.618;13.488;2023-03-01T08:43:08;27.50;;;25.83;;
13849;SDS011;6995;52.618;13.488;2023-03-01T08:45:33;28.10;;;25.80;;
13849;SDS011;6995;52.618;13.488;2023-03-01T08:47:59;29.20;;;26.70;;
13849;SDS011;6995;52.618;13.488;2023-03-01T08:50:25;27.40;;;25.43;;
13849;SDS011;6995;52.618;13.488;2023-03-01T08:52:51;26.97;;;24.50;;
13849;SDS011;6995;52.618;13.488;2023-03-01T08:55:16;33.37;;;30.90;;
13849;SDS011;6995;52.618;13.488;2023-03-01T08:57:42;25.63;;;23.80;;
13849;SDS011;6995;52.618;13.488;2023-03-01T09:00:09;29.27;;;26.97;;
13849;SDS011;6995;52.618;13.488;2023-03-01T09:02:36;28.03;;;26.07;;
13849;SDS011;6995;52.618;13.488;2023-03-01T09:05:02;25.60;;;23.90;;
13849;SDS011;6995;52.618;13.488;2023-03-01T09:07:27;25.87;;;24.20;;
13849;SDS011;6995;52.618;13.488;2023-03-01T09:09:55;24.83;;;23.33;;
13849;SDS011;6995;52.618;13.488;2023-03-01T09:12:21;24.10;;;22.00;;
13849;SDS011;6995;52.618;13.488;2023-03-01T09:14:47;25.07;;;23.37;;
13849;SDS011;6995;52.618;13.488;2023-03-01T09:17:13;24.83;;;23.33;;
13849;SDS011;6995;52.618;13.488;2023-03-01T09:19:38;24.00;;;22.60;;
13849;SDS011;6995;52.618;13.488;2023-03-01T09:22:04;27.90;;;25.90;;
13849;SDS011;6995;52.618;13.488;2023-03-01T09:24:30;27.63;;;25.73;;
13849;SDS011;6995;52.618;13.488;2023-03-01T09:26:56;26.10;;;24.50;;
13849;SDS011;6995;52.618;13.488;2023-03-01T09:29:21;26.30;;;24.30;;
13849;SDS011;6995;52.618;13.488;2023-03-01T09:31:47;29.83;;;27.93;;
13849;SDS011;6995;52.618;13.488;2023-03-01T09:34:13;25.50;;;23.93;;
13849;SDS011;6995;52.618;13.488;2023-03-01T09:36:41;28.90;;;26.90;;
13849;SDS011;6995;52.618;13.488;2023-03-01T09:39:10;27.77;;;25.77;;
13849;SDS011;6995;52.618;13.488;2023-03-01T09:42:02;27.07;;;25.37;;
13849;SDS011;6995;52.618;13.488;2023-03-01T09:47:24;25.67;;;22.57;;
13849;SDS011;6995;52.618;13.488;2023-03-01T12:58:20;21.53;;;20.30;;
13849;SDS011;6995;52.618;13.488;2023-03-01T13:46:02;26.35;;;24.77;;
13849;SDS011;6995;52.618;13.488;2023-03-01T13:49:09;25.95;;;24.58;;
13849;SDS011;6995;52.618;13.488;2023-03-01T13:56:02;28.30;;;26.35;;
13849;SDS011;6995;52.618;13.488;2023-03-01T13:58:59;25.58;;;23.85;;
13849;SDS011;6995;52.618;13.488;2023-03-01T14:02:13;24.90;;;23.40;;
13849;SDS011;6995;52.618;13.488;2023-03-01T14:05:13;31.33;;;28.98;;
13849;SDS011;6995;52.618;13.488;2023-03-01T14:07:41;23.48;;;21.95;;
13849;SDS011;6995;52.618;13.488;2023-03-01T14:40:03;21.88;;;20.67;;
13849;SDS011;6995;52.618;13.488;2023-03-01T14:43:15;24.63;;;22.92;;
13849;SDS011;6995;52.618;13.488;2023-03-01T14:46:00;24.52;;;22.95;;
13849;SDS011;6995;52.618;13.488;2023-03-01T14:51:52;23.08;;;21.25;;
13849;SDS011;6995;52.618;13.488;2023-03-01T14:57:52;20.83;;;19.63;;
13849;SDS011;6995;52.618;13.488;2023-03-01T15:00:32;20.92;;;19.55;;
13849;SDS011;6995;52.618;13.488;2023-03-01T15:06:07;24.65;;;23.05;;
13849;SDS011;6995;52.618;13.488;2023-03-01T15:08:47;26.55;;;24.83;;
13849;SDS011;6995;52.618;13.488;2023-03-01T15:11:23;30.80;;;28.60;;
13849;SDS011;6995;52.618;13.488;2023-03-01T15:17:03;29.27;;;27.58;;
13849;SDS011;6995;52.618;13.488;2023-03-01T15:19:36;26.15;;;24.55;;
13849;SDS011;6995;52.618;13.488;2023-03-01T15:22:16;22.05;;;20.73;;
13849;SDS011;6995;52.618;13.488;2023-03-01T15:24:50;22.92;;;21.38;;
13849;SDS011;6995;52.618;13.488;2023-03-01T15:27:21;20.08;;;18.80;;
13849;SDS011;6995;52.618;13.488;2023-03-01T15:30:02;22.98;;;21.42;;
13849;SDS011;6995;52.618;13.488;2023-03-01T15:32:32;24.58;;;23.23;;
13849;SDS011;6995;52.618;13.488;2023-03-01T15:38:22;19.97;;;18.67;;
13849;SDS011;6995;52.618;13.488;2023-03-01T15:41:32;23.00;;;21.70;;
13849;SDS011;6995;52.618;13.488;2023-03-01T15:44:42;22.40;;;21.10;;
13849;SDS011;6995;52.618;13.488;2023-03-01T15:47:29;24.37;;;22.97;;
13849;SDS011;6995;52.618;13.488;2023-03-01T15:50:24;38.37;;;35.70;;
13849;SDS011;6995;52.618;13.488;2023-03-01T15:53:09;24.00;;;22.80;;
13849;SDS011;6995;52.618;13.488;2023-03-01T15:55:39;26.70;;;24.83;;
13849;SDS011;6995;52.618;13.488;2023-03-01T15:58:22;22.90;;;21.60;;
13849;SDS011;6995;52.618;13.488;2023-03-01T16:04:25;23.07;;;21.67;;
13849;SDS011;6995;52.618;13.488;2023-03-01T16:07:38;22.70;;;21.50;;
13849;SDS011;6995;52.618;13.488;2023-03-01T16:16:51;22.20;;;20.90;;
13849;SDS011;6995;52.618;13.488;2023-03-01T16:19:44;27.17;;;24.90;;
13849;SDS011;6995;52.618;13.488;2023-03-01T16:22:17;22.43;;;20.90;;
13849;SDS011;6995;52.618;13.488;2023-03-01T16:24:59;23.80;;;22.47;;
13849;SDS011;6995;52.618;13.488;2023-03-01T16:28:04;21.87;;;20.70;;
13849;SDS011;6995;52.618;13.488;2023-03-01T16:40:16;25.53;;;22.93;;
13849;SDS011;6995;52.618;13.488;2023-03-01T16:56:26;26.07;;;23.83;;
13849;SDS011;6995;52.618;13.488;2023-03-01T17:01:50;24.50;;;22.80;;
13849;SDS011;6995;52.618;13.488;2023-03-01T17:05:16;29.20;;;27.17;;
13849;SDS011;6995;52.618;13.488;2023-03-01T17:07:52;28.90;;;26.67;;
13849;SDS011;6995;52.618;13.488;2023-03-01T17:10:26;28.57;;;26.37;;
13849;SDS011;6995;52.618;13.488;2023-03-01T17:26:58;30.50;;;28.17;;
13849;SDS011;6995;52.618;13.488;2023-03-01T17:30:16;32.20;;;29.37;;
13849;SDS011;6995;52.618;13.488;2023-03-01T17:33:19;22.97;;;21.50;;
13849;SDS011;6995;52.618;13.488;2023-03-01T17:36:26;27.87;;;25.80;;
13849;SDS011;6995;52.618;13.488;2023-03-01T17:39:01;27.50;;;25.63;;
13849;SDS011;6995;52.618;13.488;2023-03-01T17:42:29;28.43;;;26.53;;
13849;SDS011;6995;52.618;13.488;2023-03-01T17:45:33;33.77;;;31.47;;
13849;SDS011;6995;52.618;13.488;2023-03-01T18:23:20;32.40;;;27.90;;
13849;SDS011;6995;52.618;13.488;2023-03-01T18:32:41;35.00;;;31.77;;
13849;SDS011;6995;52.618;13.488;2023-03-01T18:35:51;34.90;;;31.53;;
13849;SDS011;6995;52.618;13.488;2023-03-01T18:38:27;35.13;;;31.93;;
13849;SDS011;6995;52.618;13.488;2023-03-01T18:41:18;32.90;;;30.13;;
13849;SDS011;6995;52.618;13.488;2023-03-01T18:43:47;35.07;;;31.60;;
13849;SDS011;6995;52.618;13.488;2023-03-01T18:46:30;31.00;;;28.33;;
13849;SDS011;6995;52.618;13.488;2023-03-01T18:49:22;34.37;;;31.57;;
13849;SDS011;6995;52.618;13.488;2023-03-01T18:55:09;32.10;;;28.97;;
13849;SDS011;6995;52.618;13.488;2023-03-01T19:01:26;33.93;;;30.70;;
13849;SDS011;6995;52.618;13.488;2023-03-01T19:04:00;32.07;;;29.10;;
13849;SDS011;6995;52.618;13.488;2023-03-01T19:07:17;36.03;;;30.80;;
13849;SDS011;6995;52.618;13.488;2023-03-01T19:10:28;35.63;;;32.37;;
13849;SDS011;6995;52.618;13.488;2023-03-01T19:13:56;32.57;;;29.77;;
13849;SDS011;6995;52.618;13.488;2023-03-01T19:17:12;34.40;;;29.77;;
13849;SDS011;6995;52.618;13.488;2023-03-01T19:20:16;36.30;;;33.30;;
13849;SDS011;6995;52.618;13.488;2023-03-01T19:23:18;33.93;;;30.93;;
13849;SDS011;6995;52.618;13.488;2023-03-01T19:26:18;33.70;;;30.17;;
13849;SDS011;6995;52.618;13.488;2023-03-01T19:28:54;38.67;;;35.17;;
13849;SDS011;6995;52.618;13.488;2023-03-01T19:31:38;42.23;;;37.73;;
13849;SDS011;6995;52.618;13.488;2023-03-01T19:34:13;42.57;;;38.13;;
13849;SDS011;6995;52.618;13.488;2023-03-01T19:37:15;41.80;;;37.60;;
13849;SDS011;6995;52.618;13.488;2023-03-01T19:40:04;36.80;;;33.37;;
13849;SDS011;6995;52.618;13.488;2023-03-01T19:42:47;38.83;;;35.60;;
13849;SDS011;6995;52.618;13.488;2023-03-01T19:46:03;38.40;;;35.07;;
13849;SDS011;6995;52.618;13.488;2023-03-01T19:48:29;40.90;;;37.40;;
13849;SDS011;6995;52.618;13.488;2023-03-01T19:55:02;42.63;;;38.33;;
13849;SDS011;6995;52.618;13.488;2023-03-01T20:08:56;45.47;;;41.27;;
